createdAt,value
2017-06-08T00:02:11.791Z,100539
2017-06-08T00:04:40.008Z,100540
2017-06-08T00:07:08.542Z,100545
2017-06-08T00:09:36.751Z,100542
2017-06-08T00:12:04.963Z,100550
2017-06-08T00:14:33.163Z,100540
2017-06-08T00:17:01.371Z,100546
2017-06-08T00:19:29.988Z,100542
2017-06-08T00:21:58.174Z,100544
2017-06-08T00:24:26.370Z,100545
2017-06-08T00:26:54.553Z,100547
2017-06-08T00:29:23.489Z,100551
2017-06-08T00:31:52.098Z,100555
2017-06-08T00:34:20.295Z,100555
2017-06-08T00:36:48.497Z,100554
2017-06-08T00:39:16.715Z,100551
2017-06-08T00:41:44.936Z,100564
2017-06-08T00:44:13.591Z,100557
2017-06-08T00:46:41.774Z,100559
2017-06-08T00:49:09.960Z,100564
2017-06-08T00:51:38.186Z,100556
2017-06-08T00:54:06.367Z,100551
2017-06-08T00:56:34.966Z,100557
2017-06-08T00:59:03.203Z,100570
2017-06-08T01:01:31.388Z,100566
2017-06-08T01:03:59.611Z,100555
2017-06-08T01:06:28.587Z,100562
2017-06-08T01:08:57.973Z,100558
2017-06-08T01:11:26.155Z,100562
2017-06-08T01:13:54.364Z,100569
2017-06-08T01:16:22.657Z,100571
2017-06-08T01:18:50.845Z,100581
2017-06-08T01:21:19.435Z,100575
2017-06-08T01:23:47.635Z,100589
2017-06-08T01:26:15.847Z,100589
2017-06-08T01:28:44.087Z,100600
2017-06-08T01:31:12.272Z,100595
2017-06-08T01:33:41.597Z,100598
2017-06-08T01:36:09.807Z,100605
2017-06-08T01:38:38.033Z,100610
2017-06-08T01:41:06.246Z,100612
2017-06-08T01:43:34.444Z,100610
2017-06-08T01:46:02.635Z,100612
2017-06-08T01:48:31.628Z,100606
2017-06-08T01:50:59.802Z,100610
2017-06-08T01:53:29.252Z,100613
2017-06-08T01:55:57.429Z,100621
2017-06-08T01:58:25.622Z,100618
2017-06-08T02:00:53.869Z,100608
2017-06-08T02:03:22.061Z,100614
2017-06-08T02:05:50.692Z,100611
2017-06-08T02:08:19.640Z,100623
2017-06-08T02:10:47.807Z,100618
2017-06-08T02:13:16.025Z,100626
2017-06-08T02:15:44.196Z,100627
2017-06-08T02:18:12.757Z,100627
2017-06-08T02:20:40.962Z,100627
2017-06-08T02:23:09.241Z,100636
2017-06-08T02:25:37.519Z,100633
2017-06-08T02:28:05.720Z,100645
2017-06-08T02:30:34.258Z,100644
2017-06-08T02:33:03.218Z,100649
2017-06-08T02:35:31.492Z,100643
2017-06-08T02:37:59.705Z,100649
2017-06-08T02:40:27.917Z,100642
2017-06-08T02:42:56.525Z,100650
2017-06-08T02:45:24.706Z,100649
2017-06-08T02:47:52.930Z,100652
2017-06-08T02:50:21.229Z,100651
2017-06-08T02:52:49.427Z,100655
2017-06-08T02:55:18.010Z,100655
2017-06-08T02:57:46.201Z,100654
2017-06-08T03:00:14.375Z,100655
2017-06-08T03:02:42.570Z,100655
2017-06-08T03:05:10.746Z,100659
2017-06-08T03:07:39.383Z,100658
2017-06-08T03:10:07.556Z,100666
2017-06-08T03:12:35.760Z,100663
2017-06-08T03:15:05.135Z,100666
2017-06-08T03:17:33.343Z,100673
2017-06-08T03:20:01.552Z,100664
2017-06-08T03:22:30.075Z,100670
2017-06-08T03:24:59.022Z,100667
2017-06-08T03:27:27.232Z,100664
2017-06-08T03:29:55.835Z,100680
2017-06-08T03:32:24.062Z,100667
2017-06-08T03:34:52.278Z,100675
2017-06-08T03:37:20.826Z,100681
2017-06-08T03:39:49.009Z,100685
2017-06-08T03:42:17.217Z,100685
2017-06-08T03:44:46.671Z,100689
2017-06-08T03:47:14.874Z,100684
2017-06-08T03:49:43.827Z,100690
2017-06-08T03:52:12.333Z,100689
2017-06-08T03:54:40.546Z,100682
2017-06-08T03:57:08.731Z,100687
2017-06-08T03:59:37.278Z,100681
2017-06-08T04:02:05.478Z,100691
2017-06-08T04:04:33.658Z,100693
2017-06-08T04:07:02.199Z,100690
2017-06-08T04:09:30.383Z,100693
2017-06-08T04:11:59.413Z,100687
2017-06-08T04:14:27.958Z,100697
2017-06-08T04:16:56.996Z,100695
2017-06-08T04:19:25.183Z,100704
2017-06-08T04:21:53.753Z,100695
2017-06-08T04:24:21.962Z,100705
2017-06-08T04:26:50.166Z,100702
2017-06-08T04:29:18.804Z,100709
2017-06-08T04:31:47.008Z,100704
2017-06-08T04:34:15.975Z,100701
2017-06-08T04:36:44.560Z,100712
2017-06-08T04:39:12.769Z,100714
2017-06-08T04:41:41.011Z,100710
2017-06-08T04:44:09.583Z,100712
2017-06-08T04:46:37.832Z,100706
2017-06-08T04:49:06.048Z,100714
2017-06-08T04:51:34.742Z,100713
2017-06-08T04:54:02.947Z,100715
2017-06-08T04:56:31.148Z,100708
2017-06-08T04:58:59.837Z,100717
2017-06-08T05:01:28.062Z,100720
2017-06-08T05:03:56.348Z,100714
2017-06-08T05:06:25.043Z,100719
2017-06-08T05:08:53.230Z,100728
2017-06-08T05:11:21.437Z,100721
2017-06-08T05:13:50.002Z,100709
2017-06-08T05:16:18.223Z,100718
2017-06-08T05:18:47.313Z,100723
2017-06-08T05:21:15.836Z,100718
2017-06-08T05:23:44.046Z,100722
2017-06-08T05:26:12.242Z,100719
2017-06-08T05:28:41.579Z,100719
2017-06-08T05:31:09.776Z,100716
2017-06-08T05:33:37.947Z,100725
2017-06-08T05:36:06.449Z,100718
2017-06-08T05:38:35.450Z,100740
2017-06-08T05:41:04.426Z,100724
2017-06-08T05:43:32.988Z,100723
2017-06-08T05:46:01.350Z,100728
2017-06-08T05:48:29.533Z,100725
2017-06-08T05:50:58.071Z,100719
2017-06-08T05:53:27.033Z,100727
2017-06-08T05:55:55.240Z,100737
2017-06-08T05:58:23.905Z,100734
2017-06-08T06:00:52.944Z,100736
2017-06-08T06:03:21.143Z,100738
2017-06-08T06:05:49.657Z,100733
2017-06-08T06:08:17.911Z,100737
2017-06-08T06:10:46.109Z,100731
2017-06-08T06:13:14.668Z,100734
2017-06-08T06:15:42.847Z,100734
2017-06-08T06:18:11.098Z,100741
2017-06-08T06:20:39.809Z,100734
2017-06-08T06:23:08.564Z,100739
2017-06-08T06:25:36.783Z,100751
2017-06-08T06:28:05.347Z,100749
2017-06-08T06:30:33.532Z,100749
2017-06-08T06:33:02.500Z,100747
2017-06-08T06:35:31.222Z,100752
2017-06-08T06:37:59.432Z,100750
2017-06-08T06:40:27.646Z,100750
2017-06-08T06:42:56.173Z,100753
2017-06-08T06:45:24.385Z,100755
2017-06-08T06:47:52.618Z,100766
2017-06-08T06:50:21.252Z,100758
2017-06-08T06:52:49.445Z,100758
2017-06-08T06:55:18.399Z,100753
2017-06-08T06:57:47.001Z,100769
2017-06-08T07:00:15.219Z,100763
2017-06-08T07:02:43.432Z,100770
2017-06-08T07:05:11.999Z,100767
2017-06-08T07:07:40.165Z,100777
2017-06-08T07:10:08.399Z,100769
2017-06-08T07:12:37.718Z,100776
2017-06-08T07:15:05.938Z,100779
2017-06-08T07:17:34.133Z,100785
2017-06-08T07:20:02.678Z,100788
2017-06-08T07:22:30.922Z,100785
2017-06-08T07:24:59.158Z,100787
2017-06-08T07:27:27.725Z,100790
2017-06-08T07:29:55.928Z,100788
2017-06-08T07:32:24.140Z,100794
2017-06-08T07:34:52.759Z,100795
2017-06-08T07:37:20.969Z,100797
2017-06-08T07:39:49.179Z,100790
2017-06-08T07:42:17.912Z,100792
2017-06-08T07:44:46.144Z,100792
2017-06-08T07:47:14.340Z,100783
2017-06-08T07:49:42.924Z,100802
2017-06-08T07:52:11.126Z,100806
2017-06-08T07:54:39.314Z,100803
2017-06-08T07:57:07.940Z,100806
2017-06-08T07:59:36.163Z,100812
2017-06-08T08:02:22.418Z,100803
2017-06-08T08:04:50.638Z,100814
2017-06-08T08:07:18.859Z,100820
2017-06-08T08:09:47.391Z,100828
2017-06-08T08:12:15.621Z,100822
2017-06-08T08:14:43.843Z,100821
2017-06-08T08:17:12.382Z,100826
2017-06-08T08:19:40.577Z,100830
2017-06-08T08:22:08.801Z,100825
2017-06-08T08:24:37.450Z,100831
2017-06-08T08:27:05.690Z,100836
2017-06-08T08:29:33.889Z,100834
2017-06-08T08:32:02.434Z,100843
2017-06-08T08:34:30.645Z,100835
2017-06-08T08:36:58.877Z,100850
2017-06-08T08:39:27.495Z,100832
2017-06-08T08:41:55.709Z,100837
2017-06-08T08:44:23.954Z,100839
2017-06-08T08:46:52.583Z,100844
2017-06-08T08:49:20.845Z,100839
2017-06-08T08:51:49.027Z,100837
2017-06-08T08:54:17.765Z,100843
2017-06-08T08:56:45.982Z,100835
2017-06-08T08:59:14.188Z,100850
2017-06-08T09:01:42.800Z,100844
2017-06-08T09:04:11.078Z,100836
2017-06-08T09:06:39.452Z,100845
2017-06-08T09:09:07.994Z,100806
2017-06-08T09:11:36.211Z,100844
2017-06-08T09:14:05.394Z,100847
2017-06-08T09:16:34.023Z,100834
2017-06-08T09:19:02.228Z,100844
2017-06-08T09:21:30.589Z,100850
2017-06-08T09:23:59.139Z,100837
2017-06-08T09:26:27.337Z,100848
2017-06-08T09:28:55.563Z,100836
2017-06-08T09:31:24.221Z,100843
2017-06-08T09:33:52.422Z,100838
2017-06-08T09:36:21.387Z,100846
2017-06-08T09:38:49.969Z,100833
2017-06-08T09:41:18.245Z,100845
2017-06-08T09:43:46.457Z,100846
2017-06-08T09:46:14.998Z,100846
2017-06-08T09:48:43.240Z,100855
2017-06-08T09:51:11.414Z,100856
2017-06-08T09:53:40.126Z,100852
2017-06-08T09:56:08.339Z,100855
2017-06-08T09:58:36.623Z,100848
2017-06-08T10:01:05.210Z,100845
2017-06-08T10:03:33.446Z,100850
2017-06-08T10:06:01.649Z,100854
2017-06-08T10:08:30.298Z,100860
2017-06-08T10:10:58.507Z,100859
2017-06-08T10:13:26.702Z,100864
2017-06-08T10:15:55.328Z,100866
2017-06-08T10:18:23.510Z,100867
2017-06-08T10:20:51.845Z,100860
2017-06-08T10:23:20.400Z,100865
2017-06-08T10:25:48.598Z,100859
2017-06-08T10:28:16.819Z,100866
2017-06-08T10:30:45.361Z,100850
2017-06-08T10:33:13.548Z,100858
2017-06-08T10:35:41.829Z,100856
2017-06-08T10:38:10.455Z,100852
2017-06-08T10:40:39.474Z,100854
2017-06-08T10:43:07.683Z,100853
2017-06-08T10:45:36.199Z,100864
2017-06-08T10:48:04.439Z,100851
2017-06-08T10:50:32.790Z,100846
2017-06-08T10:53:01.503Z,100848
2017-06-08T10:55:29.747Z,100852
2017-06-08T10:57:57.962Z,100847
2017-06-08T11:00:26.632Z,100856
2017-06-08T11:02:55.621Z,100856
2017-06-08T11:05:23.875Z,100859
2017-06-08T11:07:52.579Z,100864
2017-06-08T11:10:20.786Z,100863
2017-06-08T11:12:49.816Z,100857
2017-06-08T11:15:18.453Z,100859
2017-06-08T11:17:46.777Z,100860
2017-06-08T11:20:14.957Z,100854
2017-06-08T11:22:43.537Z,100854
2017-06-08T11:25:11.764Z,100855
2017-06-08T11:27:39.959Z,100868
2017-06-08T11:30:08.815Z,100864
2017-06-08T11:32:37.031Z,100865
2017-06-08T11:35:05.231Z,100872
2017-06-08T11:37:33.933Z,100868
2017-06-08T11:40:02.133Z,100868
2017-06-08T11:42:30.376Z,100870
2017-06-08T11:44:59.211Z,100873
2017-06-08T11:47:27.566Z,100875
2017-06-08T11:49:55.801Z,100872
2017-06-08T11:52:24.464Z,100872
2017-06-08T11:54:52.685Z,100875
2017-06-08T11:57:20.992Z,100873
2017-06-08T11:59:49.746Z,100868
2017-06-08T12:02:17.950Z,100869
2017-06-08T12:04:46.145Z,100870
2017-06-08T12:07:14.883Z,100872
2017-06-08T12:09:43.177Z,100871
2017-06-08T12:12:11.406Z,100861
2017-06-08T12:14:39.951Z,100864
2017-06-08T12:17:08.251Z,100861
2017-06-08T12:19:36.531Z,100860
2017-06-08T12:22:05.122Z,100857
2017-06-08T12:24:33.322Z,100860
2017-06-08T12:27:01.568Z,100858
2017-06-08T12:29:30.310Z,100855
2017-06-08T12:31:58.513Z,100854
2017-06-08T12:34:26.701Z,100848
2017-06-08T12:36:55.352Z,100848
2017-06-08T12:39:23.594Z,100850
2017-06-08T12:41:51.789Z,100848
2017-06-08T12:44:20.468Z,100847
2017-06-08T12:46:48.677Z,100849
2017-06-08T12:49:16.881Z,100848
2017-06-08T12:51:45.431Z,100848
2017-06-08T12:54:13.619Z,100844
2017-06-08T12:56:41.848Z,100851
2017-06-08T12:59:11.319Z,100851
2017-06-08T13:01:39.660Z,100838
2017-06-08T13:04:07.971Z,100850
2017-06-08T13:06:36.565Z,100852
2017-06-08T13:09:05.750Z,100853
2017-06-08T13:11:33.976Z,100852
2017-06-08T13:14:02.515Z,100844
2017-06-08T13:16:30.839Z,100852
2017-06-08T13:18:59.046Z,100854
2017-06-08T13:21:27.687Z,100848
2017-06-08T13:23:55.988Z,100849
2017-06-08T13:26:24.201Z,100801
2017-06-08T13:28:52.770Z,100850
2017-06-08T13:31:20.982Z,100849
2017-06-08T13:33:49.197Z,100851
2017-06-08T13:36:19.203Z,100852
2017-06-08T13:38:47.427Z,100848
2017-06-08T13:41:15.626Z,100858
2017-06-08T13:43:44.184Z,100849
2017-06-08T13:46:13.139Z,100848
2017-06-08T13:48:41.482Z,100848
2017-06-08T13:51:10.059Z,100843
2017-06-08T13:53:38.356Z,100844
2017-06-08T13:56:06.563Z,100839
2017-06-08T13:58:35.351Z,100836
2017-06-08T14:01:03.547Z,100839
2017-06-08T14:03:31.762Z,100839
2017-06-08T14:06:00.294Z,100826
2017-06-08T14:08:28.487Z,100821
2017-06-08T14:10:57.429Z,100819
2017-06-08T14:13:25.998Z,100820
2017-06-08T14:15:55.214Z,100813
2017-06-08T14:18:23.436Z,100808
2017-06-08T14:20:52.066Z,100812
2017-06-08T14:23:20.352Z,100814
2017-06-08T14:25:48.550Z,100808
2017-06-08T14:28:17.295Z,100799
2017-06-08T14:30:45.607Z,100797
2017-06-08T14:33:13.847Z,100803
2017-06-08T14:35:42.442Z,100800
2017-06-08T14:38:10.638Z,100794
2017-06-08T14:40:38.847Z,100783
2017-06-08T14:43:07.546Z,100785
2017-06-08T14:45:35.736Z,100778
2017-06-08T14:48:03.950Z,100775
2017-06-08T14:50:32.554Z,100774
2017-06-08T14:53:00.815Z,100770
2017-06-08T14:55:29.031Z,100762
2017-06-08T14:57:57.590Z,100765
2017-06-08T15:00:25.832Z,100761
2017-06-08T15:02:54.213Z,100763
2017-06-08T15:05:23.335Z,100749
2017-06-08T15:07:51.702Z,100752
2017-06-08T15:10:19.931Z,100747
2017-06-08T15:12:48.567Z,100739
2017-06-08T15:15:16.770Z,100741
2017-06-08T15:17:44.971Z,100730
2017-06-08T15:20:13.534Z,100739
2017-06-08T15:22:41.730Z,100746
2017-06-08T15:25:09.951Z,100738
2017-06-08T15:27:38.528Z,100736
2017-06-08T15:30:06.777Z,100730
2017-06-08T15:32:35.743Z,100732
2017-06-08T15:35:04.324Z,100728
2017-06-08T15:37:32.526Z,100723
2017-06-08T15:40:01.490Z,100729
2017-06-08T15:42:30.089Z,100722
2017-06-08T15:44:58.350Z,100720
2017-06-08T15:47:26.565Z,100721
2017-06-08T15:49:55.280Z,100719
2017-06-08T15:52:23.447Z,100705
2017-06-08T15:54:51.813Z,100701
2017-06-08T15:57:20.551Z,100703
2017-06-08T15:59:48.759Z,100700
2017-06-08T16:02:16.970Z,100701
2017-06-08T16:04:45.604Z,100702
2017-06-08T16:07:14.657Z,100695
2017-06-08T16:09:42.850Z,100688
2017-06-08T16:12:11.414Z,100682
2017-06-08T16:14:39.624Z,100677
2017-06-08T16:17:07.834Z,100674
2017-06-08T16:19:36.394Z,100679
2017-06-08T16:22:05.405Z,100675
2017-06-08T16:24:33.591Z,100670
2017-06-08T16:27:02.132Z,100668
2017-06-08T16:29:31.163Z,100667
2017-06-08T16:31:59.423Z,100669
2017-06-08T16:34:28.188Z,100670
2017-06-08T16:36:56.443Z,100668
2017-06-08T16:39:24.669Z,100661
2017-06-08T16:41:53.202Z,100664
2017-06-08T16:44:21.456Z,100660
2017-06-08T16:46:49.727Z,100658
2017-06-08T16:49:18.335Z,100668
2017-06-08T16:51:46.557Z,100657
2017-06-08T16:54:14.741Z,100657
2017-06-08T16:56:43.355Z,100652
2017-06-08T16:59:11.593Z,100651
2017-06-08T17:01:39.813Z,100652
2017-06-08T17:04:08.415Z,100647
2017-06-08T17:06:37.399Z,100650
2017-06-08T17:09:06.416Z,100651
2017-06-08T17:11:35.056Z,100645
2017-06-08T17:14:03.259Z,100645
2017-06-08T17:16:31.500Z,100650
2017-06-08T17:19:00.130Z,100650
2017-06-08T17:21:28.335Z,100642
2017-06-08T17:23:56.541Z,100639
2017-06-08T17:26:25.126Z,100638
2017-06-08T17:28:53.457Z,100639
2017-06-08T17:31:21.726Z,100628
2017-06-08T17:33:50.295Z,100634
2017-06-08T17:36:18.492Z,100633
2017-06-08T17:38:46.778Z,100629
2017-06-08T17:41:15.391Z,100626
2017-06-08T17:43:43.656Z,100633
2017-06-08T17:46:11.863Z,100630
2017-06-08T17:48:40.527Z,100632
2017-06-08T17:51:09.539Z,100629
2017-06-08T17:53:37.774Z,100622
2017-06-08T17:56:06.342Z,100633
2017-06-08T17:58:34.606Z,100631
2017-06-08T18:01:02.803Z,100631
2017-06-08T18:03:31.377Z,100627
2017-06-08T18:05:59.572Z,100617
2017-06-08T18:08:27.783Z,100619
2017-06-08T18:10:56.328Z,100621
2017-06-08T18:13:24.568Z,100613
2017-06-08T18:15:52.898Z,100620
2017-06-08T18:18:21.705Z,100621
2017-06-08T18:20:49.910Z,100629
2017-06-08T18:23:18.284Z,100624
2017-06-08T18:25:46.867Z,100626
2017-06-08T18:28:15.211Z,100629
2017-06-08T18:30:43.424Z,100624
2017-06-08T18:33:12.030Z,100622
2017-06-08T18:35:40.216Z,100621
2017-06-08T18:38:08.426Z,100610
2017-06-08T18:40:37.196Z,100629
2017-06-08T18:43:05.445Z,100628
2017-06-08T18:45:33.636Z,100631
2017-06-08T18:48:02.194Z,100623
2017-06-08T18:50:30.390Z,100628
2017-06-08T18:52:58.647Z,100635
2017-06-08T18:55:27.254Z,100633
2017-06-08T18:57:55.472Z,100630
2017-06-08T19:00:23.707Z,100633
2017-06-08T19:02:52.259Z,100638
2017-06-08T19:05:21.327Z,100633
2017-06-08T19:07:49.543Z,100636
2017-06-08T19:10:18.891Z,100637
2017-06-08T19:12:47.162Z,100635
2017-06-08T19:15:15.379Z,100626
2017-06-08T19:17:43.954Z,100636
2017-06-08T19:20:12.212Z,100642
2017-06-08T19:22:40.441Z,100639
2017-06-08T19:25:09.017Z,100638
2017-06-08T19:27:37.257Z,100638
2017-06-08T19:30:05.489Z,100638
2017-06-08T19:32:34.031Z,100637
2017-06-08T19:35:03.056Z,100637
2017-06-08T19:37:31.263Z,100639
2017-06-08T19:39:59.843Z,100647
2017-06-08T19:42:28.094Z,100649
2017-06-08T19:44:56.307Z,100645
2017-06-08T19:47:25.013Z,100655
2017-06-08T19:49:54.014Z,100647
2017-06-08T19:52:22.252Z,100658
2017-06-08T19:54:51.651Z,100655
2017-06-08T19:57:19.861Z,100657
2017-06-08T19:59:48.856Z,100651
2017-06-08T20:02:18.248Z,100657
2017-06-08T20:04:46.491Z,100660
2017-06-08T20:07:14.738Z,100662
2017-06-08T20:09:43.396Z,100659
2017-06-08T20:12:12.368Z,100662
2017-06-08T20:14:40.590Z,100655
2017-06-08T20:17:09.229Z,100653
2017-06-08T20:19:37.447Z,100652
2017-06-08T20:22:05.659Z,100647
2017-06-08T20:24:34.185Z,100654
2017-06-08T20:27:02.399Z,100649
2017-06-08T20:29:30.625Z,100656
2017-06-08T20:31:59.234Z,100648
2017-06-08T20:34:27.539Z,100642
2017-06-08T20:36:55.833Z,100647
2017-06-08T20:39:24.418Z,100646
2017-06-08T20:41:52.584Z,100638
2017-06-08T20:44:20.794Z,100637
2017-06-08T20:46:49.346Z,100646
2017-06-08T20:49:17.571Z,100640
2017-06-08T20:51:45.799Z,100626
2017-06-08T20:54:14.468Z,100632
2017-06-08T20:56:42.710Z,100637
2017-06-08T20:59:10.942Z,100635
2017-06-08T21:01:39.498Z,100639
2017-06-08T21:04:07.743Z,100644
2017-06-08T21:06:35.931Z,100640
2017-06-08T21:09:04.685Z,100635
2017-06-08T21:11:32.886Z,100634
2017-06-08T21:14:01.102Z,100631
2017-06-08T21:16:29.793Z,100625
2017-06-08T21:18:57.973Z,100627
2017-06-08T21:21:26.984Z,100629
2017-06-08T21:23:55.728Z,100632
2017-06-08T21:26:23.940Z,100628
2017-06-08T21:28:52.151Z,100631
2017-06-08T21:31:20.712Z,100626
2017-06-08T21:33:48.955Z,100629
2017-06-08T21:36:17.933Z,100624
2017-06-08T21:38:47.326Z,100617
2017-06-08T21:41:15.621Z,100623
2017-06-08T21:43:43.883Z,100619
2017-06-08T21:46:12.410Z,100610
2017-06-08T21:48:40.610Z,100616
2017-06-08T21:51:08.817Z,100615
2017-06-08T21:53:38.155Z,100613
2017-06-08T21:56:06.360Z,100621
2017-06-08T21:58:34.584Z,100617
2017-06-08T22:01:03.162Z,100619
2017-06-08T22:03:31.399Z,100612
2017-06-08T22:05:59.624Z,100614
2017-06-08T22:08:28.198Z,100616
2017-06-08T22:10:56.421Z,100613
2017-06-08T22:13:24.651Z,100605
2017-06-08T22:15:53.269Z,100610
2017-06-08T22:18:21.566Z,100608
2017-06-08T22:20:49.759Z,100610
2017-06-08T22:23:19.141Z,100606
2017-06-08T22:25:47.377Z,100607
2017-06-08T22:28:15.588Z,100598
2017-06-08T22:30:44.156Z,100603
2017-06-08T22:33:12.365Z,100589
2017-06-08T22:35:41.327Z,100596
2017-06-08T22:38:09.927Z,100599
2017-06-08T22:40:38.125Z,100599
2017-06-08T22:43:06.354Z,100602
2017-06-08T22:45:34.931Z,100596
2017-06-08T22:48:03.123Z,100595
2017-06-08T22:50:31.333Z,100587
2017-06-08T22:52:59.891Z,100590
2017-06-08T22:55:28.075Z,100591
2017-06-08T22:57:56.242Z,100592
2017-06-08T23:00:25.622Z,100588
2017-06-08T23:02:53.859Z,100591
2017-06-08T23:05:22.110Z,100587
2017-06-08T23:07:50.671Z,100591
2017-06-08T23:10:19.627Z,100591
2017-06-08T23:12:47.842Z,100589
2017-06-08T23:15:23.037Z,100577
2017-06-08T23:17:52.842Z,100575
2017-06-08T23:20:21.427Z,100579
2017-06-08T23:22:49.650Z,100581
2017-06-08T23:25:17.873Z,100582
2017-06-08T23:27:54.047Z,100583
2017-06-08T23:30:22.231Z,100578
2017-06-08T23:32:50.429Z,100571
2017-06-08T23:35:18.952Z,100572
2017-06-08T23:37:47.132Z,100573
2017-06-08T23:40:15.367Z,100571
2017-06-08T23:42:43.878Z,100566
2017-06-08T23:45:12.087Z,100573
2017-06-08T23:47:40.266Z,100566
2017-06-08T23:50:08.817Z,100558
2017-06-08T23:52:37.015Z,100561
2017-06-08T23:55:05.211Z,100555
2017-06-08T23:57:34.539Z,100554
